createdAt,value
2023-02-27T00:01:01.498Z,101043.81
2023-02-27T00:03:29.579Z,101052.53
2023-02-27T00:05:58.796Z,101032.34
2023-02-27T00:08:27.408Z,101026.19
2023-02-27T00:10:55.983Z,101046.41
2023-02-27T00:13:25.475Z,101039.38
2023-02-27T00:15:56.366Z,101046.38
2023-02-27T00:18:25.136Z,101040.19
2023-02-27T00:20:54.592Z,101040.19
2023-02-27T00:23:23.734Z,101042.84
2023-02-27T00:25:52.579Z,101033.16
2023-02-27T00:28:25.538Z,101048.97
2023-02-27T00:30:53.824Z,101033.16
2023-02-27T00:33:22.912Z,101045.44
2023-02-27T00:35:59.782Z,101030.50
2023-02-27T00:38:29.539Z,101033.09
2023-02-27T00:41:00.142Z,101037.50
2023-02-27T00:43:29.889Z,101041.91
2023-02-27T00:45:58.862Z,101042.78
2023-02-27T00:48:27.678Z,101052.44
2023-02-27T00:50:55.948Z,101046.25
2023-02-27T00:53:24.520Z,101039.28
2023-02-27T00:55:53.048Z,101044.53
2023-02-27T00:58:21.252Z,101033.97
2023-02-27T01:00:50.083Z,101038.38
2023-02-27T01:03:18.404Z,101018.13
2023-02-27T01:05:48.121Z,101040.97
2023-02-27T01:08:16.364Z,101042.72
2023-02-27T01:10:45.189Z,101037.47
2023-02-27T01:13:13.603Z,101014.59
2023-02-27T01:15:41.719Z,101012.84
2023-02-27T01:18:10.627Z,101020.78
2023-02-27T01:20:39.388Z,101030.41
2023-02-27T01:23:08.479Z,101031.28
2023-02-27T01:25:36.657Z,101026.91
2023-02-27T01:28:06.818Z,101010.19
2023-02-27T01:30:35.293Z,101032.16
2023-02-27T01:33:03.510Z,101022.53
2023-02-27T01:35:33.643Z,101021.66
2023-02-27T01:38:02.635Z,101023.41
2023-02-27T01:40:36.624Z,101026.03
2023-02-27T01:43:07.659Z,101017.22
2023-02-27T01:45:40.915Z,101004.94
2023-02-27T01:48:31.284Z,101033.91
2023-02-27T01:51:09.132Z,101026.91
2023-02-27T01:53:40.077Z,101017.16
2023-02-27T01:56:21.260Z,101025.16
2023-02-27T01:58:51.901Z,101031.25
2023-02-27T02:01:22.110Z,101029.47
2023-02-27T02:04:31.353Z,101030.34
2023-02-27T02:07:07.790Z,101032.97
2023-02-27T02:09:48.415Z,101033.84
2023-02-27T02:12:21.181Z,101032.06
2023-02-27T02:14:49.466Z,101033.84
2023-02-27T02:17:51.199Z,101025.00
2023-02-27T02:20:56.544Z,101033.81
2023-02-27T02:23:55.824Z,101027.66
2023-02-27T02:27:19.072Z,101032.88
2023-02-27T02:30:33.904Z,101042.47
2023-02-27T02:33:36.225Z,101038.06
2023-02-27T02:36:10.695Z,101043.31
2023-02-27T02:38:56.850Z,101048.56
2023-02-27T02:41:52.694Z,101045.94
2023-02-27T02:44:35.965Z,101041.53
2023-02-27T02:47:32.473Z,101049.41
2023-02-27T02:50:11.912Z,101045.00
2023-02-27T02:52:54.369Z,101041.44
2023-02-27T02:55:34.653Z,101051.13
2023-02-27T02:58:21.829Z,101052.03
2023-02-27T03:01:30.323Z,101043.25
2023-02-27T03:04:44.994Z,101050.31
2023-02-27T03:07:39.411Z,101056.41
2023-02-27T03:10:45.819Z,101049.41
2023-02-27T03:13:45.931Z,101053.75
2023-02-27T03:16:19.566Z,101029.16
2023-02-27T03:18:53.424Z,101049.38
2023-02-27T03:21:59.769Z,101042.31
2023-02-27T03:24:41.976Z,101051.13
2023-02-27T03:27:13.260Z,101051.03
2023-02-27T03:30:07.670Z,101051.03
2023-02-27T03:32:46.008Z,101055.44
2023-02-27T03:35:16.041Z,101049.22
2023-02-27T03:37:50.164Z,101062.44
2023-02-27T03:41:01.008Z,101057.19
2023-02-27T03:44:52.455Z,101057.09
2023-02-27T03:47:21.188Z,101060.59
2023-02-27T03:49:51.286Z,101065.84
2023-02-27T03:52:21.522Z,101061.47
2023-02-27T03:55:16.185Z,101074.69
2023-02-27T03:57:47.540Z,101074.66
2023-02-27T04:00:18.328Z,101089.38
2023-02-27T04:02:50.785Z,101084.19
2023-02-27T04:05:23.556Z,101084.19
2023-02-27T04:08:28.710Z,101084.22
2023-02-27T04:11:34.435Z,101085.94
2023-02-27T04:14:13.213Z,101092.88
2023-02-27T04:17:06.835Z,101087.63
2023-02-27T04:20:02.257Z,101084.94
2023-02-27T04:22:43.575Z,101093.75
2023-02-27T04:25:20.453Z,101091.94
2023-02-27T04:28:21.513Z,101094.56
2023-02-27T04:31:20.555Z,101103.31
2023-02-27T04:34:08.647Z,101092.81
2023-02-27T04:36:50.592Z,101096.31
2023-02-27T04:39:33.642Z,101098.06
2023-02-27T04:42:10.409Z,101096.25
2023-02-27T04:44:41.201Z,101099.69
2023-02-27T04:47:14.533Z,101102.31
2023-02-27T04:49:55.622Z,101105.88
2023-02-27T04:52:36.169Z,101106.75
2023-02-27T04:55:17.990Z,101111.16
2023-02-27T04:57:59.951Z,101111.13
2023-02-27T05:00:33.441Z,101100.69
2023-02-27T05:03:19.825Z,101089.19
2023-02-27T05:05:52.013Z,101086.56
2023-02-27T05:08:58.408Z,101101.56
2023-02-27T05:11:37.252Z,101107.69
2023-02-27T05:14:16.816Z,101083.94
2023-02-27T05:17:17.922Z,101101.63
2023-02-27T05:19:47.578Z,101090.13
2023-02-27T05:22:45.836Z,101111.28
2023-02-27T05:25:44.859Z,101113.00
2023-02-27T05:28:45.050Z,101107.69
2023-02-27T05:31:21.548Z,101104.94
2023-02-27T05:34:12.704Z,101097.06
2023-02-27T05:36:55.775Z,101093.56
2023-02-27T05:39:30.565Z,101119.00
2023-02-27T05:42:06.595Z,101108.50
2023-02-27T05:44:42.809Z,101114.56
2023-02-27T05:47:21.458Z,101113.75
2023-02-27T05:50:16.063Z,101115.44
2023-02-27T05:52:48.594Z,101108.50
2023-02-27T05:55:31.150Z,101113.63
2023-02-27T05:58:21.164Z,101130.38
2023-02-27T06:01:06.410Z,101104.00
2023-02-27T06:03:37.533Z,101114.50
2023-02-27T06:06:11.416Z,101118.06
2023-02-27T06:08:42.083Z,101133.00
2023-02-27T06:11:10.492Z,101116.19
2023-02-27T06:13:41.714Z,101137.31
2023-02-27T06:16:14.140Z,101119.69
2023-02-27T06:18:42.725Z,101120.50
2023-02-27T06:21:13.382Z,101125.81
2023-02-27T06:23:42.151Z,101120.41
2023-02-27T06:26:13.895Z,101132.81
2023-02-27T06:28:42.666Z,101123.19
2023-02-27T06:31:12.051Z,101128.44
2023-02-27T06:33:41.227Z,101137.22
2023-02-27T06:36:12.585Z,101124.03
2023-02-27T06:38:41.294Z,101148.66
2023-02-27T06:41:12.610Z,101155.72
2023-02-27T06:43:41.855Z,101149.63
2023-02-27T06:46:12.062Z,101141.69
2023-02-27T06:48:42.941Z,101145.16
2023-02-27T06:51:13.528Z,101146.94
2023-02-27T06:53:43.158Z,101133.69
2023-02-27T06:56:11.486Z,101149.50
2023-02-27T06:58:41.936Z,101160.94
2023-02-27T07:01:15.042Z,101178.56
2023-02-27T07:03:47.890Z,101164.50
2023-02-27T07:06:21.349Z,101162.72
2023-02-27T07:09:09.472Z,101175.97
2023-02-27T07:11:41.813Z,101175.09
2023-02-27T07:14:12.975Z,101160.16
2023-02-27T07:16:41.326Z,101171.53
2023-02-27T07:19:13.499Z,101175.16
2023-02-27T07:21:43.566Z,101175.16
2023-02-27T07:24:13.183Z,101164.66
2023-02-27T07:26:41.835Z,101189.28
2023-02-27T07:29:10.668Z,101170.00
2023-02-27T07:31:41.125Z,101184.09
2023-02-27T07:34:13.619Z,101181.53
2023-02-27T07:36:42.120Z,101198.28
2023-02-27T07:39:13.077Z,101193.09
2023-02-27T07:41:41.611Z,101186.94
2023-02-27T07:44:20.970Z,101217.69
2023-02-27T07:46:52.321Z,101210.72
2023-02-27T07:49:23.372Z,101207.25
2023-02-27T07:51:52.502Z,101209.94
2023-02-27T07:54:21.679Z,101205.56
2023-02-27T07:56:50.269Z,101214.47
2023-02-27T07:59:19.454Z,101207.47
2023-02-27T08:01:48.130Z,101203.97
2023-02-27T08:04:18.003Z,101223.38
2023-02-27T08:06:46.109Z,101188.25
2023-02-27T08:09:17.577Z,101214.72
2023-02-27T08:11:49.700Z,101210.38
2023-02-27T08:14:17.920Z,101209.50
2023-02-27T08:16:46.628Z,101225.41
2023-02-27T08:19:15.905Z,101204.31
2023-02-27T08:21:47.948Z,101194.69
2023-02-27T08:24:17.597Z,101185.97
2023-02-27T08:26:47.500Z,101201.81
2023-02-27T08:29:17.659Z,101212.41
2023-02-27T08:31:46.933Z,101199.22
2023-02-27T08:34:21.628Z,101197.50
2023-02-27T08:36:50.505Z,101221.31
2023-02-27T08:39:18.888Z,101189.69
2023-02-27T08:41:49.239Z,101196.78
2023-02-27T08:44:17.600Z,101193.25
2023-02-27T08:46:47.175Z,101186.31
2023-02-27T08:49:15.758Z,101205.66
2023-02-27T08:51:44.000Z,101208.31
2023-02-27T08:54:12.362Z,101200.41
2023-02-27T08:56:40.681Z,101208.38
2023-02-27T08:59:09.698Z,101218.97
2023-02-27T09:01:39.346Z,101214.59
2023-02-27T09:04:28.998Z,101207.59
2023-02-27T09:06:58.284Z,101193.53
2023-02-27T09:09:27.699Z,101219.06
2023-02-27T09:11:56.862Z,101200.63
2023-02-27T09:14:26.238Z,101209.41
2023-02-27T09:16:55.251Z,101202.41
2023-02-27T09:19:25.026Z,101221.75
2023-02-27T09:21:53.666Z,101224.41
2023-02-27T09:24:23.357Z,101231.47
2023-02-27T09:26:52.361Z,101223.53
2023-02-27T09:29:22.372Z,101220.06
2023-02-27T09:31:55.107Z,101222.72
2023-02-27T09:34:24.955Z,101222.69
2023-02-27T09:36:55.081Z,101223.59
2023-02-27T09:39:25.678Z,101231.56
2023-02-27T09:41:58.042Z,101233.31
2023-02-27T09:44:45.198Z,101250.03
2023-02-27T09:47:44.254Z,101228.06
2023-02-27T09:50:23.035Z,101240.38
2023-02-27T09:52:51.668Z,101244.75
2023-02-27T09:55:23.907Z,101262.31
2023-02-27T09:58:14.495Z,101238.63
2023-02-27T10:00:52.466Z,101224.56
2023-02-27T10:03:43.845Z,101258.88
2023-02-27T10:06:32.311Z,101248.31
2023-02-27T10:09:12.545Z,101248.34
2023-02-27T10:11:55.899Z,101259.81
2023-02-27T10:14:52.815Z,101251.88
2023-02-27T10:17:36.989Z,101237.81
2023-02-27T10:20:24.339Z,101234.25
2023-02-27T10:22:58.555Z,101256.28
2023-02-27T10:25:31.686Z,101229.88
2023-02-27T10:28:16.226Z,101233.41
2023-02-27T10:30:53.794Z,101245.72
2023-02-27T10:33:28.477Z,101275.63
2023-02-27T10:35:58.254Z,101250.13
2023-02-27T10:38:44.490Z,101239.56
2023-02-27T10:41:20.834Z,101236.91
2023-02-27T10:43:49.981Z,101243.94
2023-02-27T10:46:27.824Z,101233.38
2023-02-27T10:49:00.609Z,101243.09
2023-02-27T10:51:39.055Z,101236.00
2023-02-27T10:54:25.691Z,101265.03
2023-02-27T10:57:00.383Z,101269.47
2023-02-27T10:59:40.909Z,101287.91
2023-02-27T11:02:29.314Z,101263.28
2023-02-27T11:05:01.117Z,101269.44
2023-02-27T11:07:39.052Z,101265.91
2023-02-27T11:10:24.882Z,101248.31
2023-02-27T11:13:05.577Z,101264.16
2023-02-27T11:15:38.237Z,101258.91
2023-02-27T11:18:30.972Z,101270.31
2023-02-27T11:21:26.319Z,101260.63
2023-02-27T11:24:07.914Z,101246.56
2023-02-27T11:26:40.287Z,101268.59
2023-02-27T11:29:20.792Z,101256.25
2023-02-27T11:32:06.007Z,101270.31
2023-02-27T11:34:48.309Z,101247.47
2023-02-27T11:37:36.508Z,101245.69
2023-02-27T11:40:14.384Z,101250.94
2023-02-27T11:42:55.659Z,101238.59
2023-02-27T11:46:10.214Z,101223.63
2023-02-27T11:48:32.880Z,101241.25
2023-02-27T11:51:27.029Z,101246.47
2023-02-27T11:54:16.542Z,101252.66
2023-02-27T11:57:27.795Z,101224.50
2023-02-27T12:00:22.880Z,101221.88
2023-02-27T12:02:58.654Z,101251.78
2023-02-27T12:05:39.912Z,101220.97
2023-02-27T12:08:42.705Z,101227.09
2023-02-27T12:11:44.717Z,101230.59
2023-02-27T12:14:45.929Z,101244.66
2023-02-27T12:17:30.265Z,101225.28
2023-02-27T12:20:05.265Z,101239.34
2023-02-27T12:22:40.582Z,101205.00
2023-02-27T12:25:14.478Z,101232.28
2023-02-27T12:28:24.340Z,101197.94
2023-02-27T12:31:32.958Z,101231.38
2023-02-27T12:34:47.531Z,101224.28
2023-02-27T12:37:29.790Z,101198.78
2023-02-27T12:40:02.267Z,101189.09
2023-02-27T12:42:49.570Z,101221.63
2023-02-27T12:45:37.214Z,101209.28
2023-02-27T12:48:20.949Z,101203.09
2023-02-27T12:51:02.058Z,101210.16
2023-02-27T12:54:09.364Z,101203.13
2023-02-27T12:57:16.002Z,101189.97
2023-02-27T13:00:09.193Z,101206.72
2023-02-27T13:03:27.849Z,101207.59
2023-02-27T13:06:03.771Z,101183.88
2023-02-27T13:08:38.738Z,101196.13
2023-02-27T13:11:43.910Z,101208.50
2023-02-27T13:14:59.873Z,101190.94
2023-02-27T13:18:26.821Z,101200.63
2023-02-27T13:21:05.984Z,101198.00
2023-02-27T13:24:10.600Z,101184.75
2023-02-27T13:26:43.927Z,101171.56
2023-02-27T13:29:18.737Z,101182.97
2023-02-27T13:32:42.702Z,101179.41
2023-02-27T13:35:53.580Z,101176.66
2023-02-27T13:38:50.200Z,101172.28
2023-02-27T13:41:21.621Z,101176.66
2023-02-27T13:43:56.257Z,101198.69
2023-02-27T13:46:35.172Z,101183.69
2023-02-27T13:49:30.185Z,101168.78
2023-02-27T13:52:02.186Z,101180.22
2023-02-27T13:54:44.678Z,101188.97
2023-02-27T13:57:26.174Z,101176.66
2023-02-27T13:59:59.443Z,101173.19
2023-02-27T14:02:59.877Z,101192.50
2023-02-27T14:05:45.968Z,101178.44
2023-02-27T14:08:24.660Z,101190.75
2023-02-27T14:11:20.256Z,101196.88
2023-02-27T14:13:55.472Z,101200.44
2023-02-27T14:16:42.650Z,101189.78
2023-02-27T14:19:17.551Z,101192.38
2023-02-27T14:22:14.328Z,101199.38
2023-02-27T14:25:02.489Z,101201.19
2023-02-27T14:27:46.262Z,101207.28
2023-02-27T14:30:36.016Z,101200.34
2023-02-27T14:33:48.091Z,101193.19
2023-02-27T14:36:25.055Z,101192.19
2023-02-27T14:39:00.403Z,101182.47
2023-02-27T14:41:53.712Z,101196.50
2023-02-27T14:44:26.139Z,101186.06
2023-02-27T14:46:57.864Z,101177.31
2023-02-27T14:49:36.844Z,101178.19
2023-02-27T14:52:21.381Z,101182.66
2023-02-27T14:55:06.200Z,101189.72
2023-02-27T14:57:34.664Z,101189.75
2023-02-27T15:00:07.625Z,101179.19
2023-02-27T15:02:58.378Z,101203.88
2023-02-27T15:05:51.909Z,101192.47
2023-02-27T15:08:34.209Z,101195.97
2023-02-27T15:11:28.776Z,101203.09
2023-02-27T15:14:30.172Z,101188.13
2023-02-27T15:17:26.691Z,101180.22
2023-02-27T15:19:58.513Z,101202.25
2023-02-27T15:22:39.470Z,101195.25
2023-02-27T15:25:41.186Z,101199.66
2023-02-27T15:28:32.776Z,101177.69
2023-02-27T15:31:01.783Z,101203.22
2023-02-27T15:33:34.239Z,101197.94
2023-02-27T15:36:04.229Z,101184.72
2023-02-27T15:38:38.159Z,101206.72
2023-02-27T15:41:06.565Z,101206.75
2023-02-27T15:43:34.788Z,101200.59
2023-02-27T15:46:03.910Z,101207.66
2023-02-27T15:48:33.452Z,101198.88
2023-02-27T15:51:06.073Z,101203.28
2023-02-27T15:53:36.792Z,101211.19
2023-02-27T15:56:12.139Z,101218.25
2023-02-27T15:58:51.367Z,101205.03
2023-02-27T16:01:21.351Z,101228.81
2023-02-27T16:03:55.185Z,101208.56
2023-02-27T16:06:51.526Z,101224.34
2023-02-27T16:09:38.778Z,101225.28
2023-02-27T16:12:35.192Z,101223.50
2023-02-27T16:15:31.234Z,101243.72
2023-02-27T16:18:16.061Z,101250.81
2023-02-27T16:20:56.392Z,101242.03
2023-02-27T16:23:32.086Z,101253.47
2023-02-27T16:26:19.467Z,101253.47
2023-02-27T16:29:20.302Z,101257.00
2023-02-27T16:31:58.965Z,101243.81
2023-02-27T16:34:39.029Z,101272.88
2023-02-27T16:37:30.969Z,101242.06
2023-02-27T16:40:01.399Z,101265.81
2023-02-27T16:42:30.423Z,101265.00
2023-02-27T16:44:59.530Z,101265.88
2023-02-27T16:47:29.887Z,101245.66
2023-02-27T16:50:00.886Z,101264.13
2023-02-27T16:52:33.658Z,101281.72
2023-02-27T16:55:03.986Z,101272.94
2023-02-27T16:57:32.850Z,101281.75
2023-02-27T17:00:03.387Z,101273.84
2023-02-27T17:02:32.286Z,101271.19
2023-02-27T17:05:01.480Z,101275.59
2023-02-27T17:07:30.982Z,101284.41
2023-02-27T17:10:01.110Z,101292.31
2023-02-27T17:12:31.557Z,101279.13
2023-02-27T17:15:04.764Z,101292.31
2023-02-27T17:17:34.556Z,101275.59
2023-02-27T17:20:07.826Z,101298.50
2023-02-27T17:22:45.211Z,101282.63
2023-02-27T17:25:16.276Z,101295.84
2023-02-27T17:27:52.457Z,101296.75
2023-02-27T17:30:21.450Z,101307.31
2023-02-27T17:32:50.541Z,101311.69
2023-02-27T17:35:19.642Z,101308.19
2023-02-27T17:37:48.077Z,101309.94
2023-02-27T17:40:16.541Z,101324.03
2023-02-27T17:42:48.145Z,101312.59
2023-02-27T17:45:21.401Z,101334.59
2023-02-27T17:47:52.487Z,101327.56
2023-02-27T17:50:22.765Z,101327.53
2023-02-27T17:52:51.192Z,101334.59
2023-02-27T17:55:21.160Z,101336.34
2023-02-27T17:57:55.882Z,101343.38
2023-02-27T18:00:25.119Z,101321.38
2023-02-27T18:02:55.315Z,101345.16
2023-02-27T18:05:23.556Z,101330.19
2023-02-27T18:07:55.540Z,101353.06
2023-02-27T18:10:25.962Z,101324.00
2023-02-27T18:12:54.049Z,101357.47
2023-02-27T18:15:22.765Z,101331.94
2023-02-27T18:17:52.045Z,101338.09
2023-02-27T18:20:20.508Z,101349.53
2023-02-27T18:22:51.631Z,101352.19
2023-02-27T18:25:20.713Z,101350.44
2023-02-27T18:27:51.714Z,101347.81
2023-02-27T18:30:21.575Z,101357.50
2023-02-27T18:32:57.559Z,101325.78
2023-02-27T18:35:29.793Z,101335.47
2023-02-27T18:38:02.628Z,101345.16
2023-02-27T18:40:31.745Z,101331.97
2023-02-27T18:43:02.935Z,101343.38
2023-02-27T18:45:38.102Z,101324.00
2023-02-27T18:48:07.486Z,101330.19
2023-02-27T18:50:37.775Z,101358.38
2023-02-27T18:53:06.577Z,101352.19
2023-02-27T18:55:37.461Z,101353.94
2023-02-27T18:58:12.888Z,101341.59
2023-02-27T19:00:42.685Z,101348.69
2023-02-27T19:03:12.616Z,101346.03
2023-02-27T19:05:43.018Z,101345.13
2023-02-27T19:08:15.087Z,101338.09
2023-02-27T19:10:43.833Z,101346.91
2023-02-27T19:13:14.963Z,101355.72
2023-02-27T19:15:44.886Z,101360.97
2023-02-27T19:18:13.421Z,101351.28
2023-02-27T19:20:43.345Z,101360.09
2023-02-27T19:23:12.861Z,101375.09
2023-02-27T19:25:50.018Z,101370.66
2023-02-27T19:28:18.111Z,101356.56
2023-02-27T19:30:46.522Z,101369.75
2023-02-27T19:33:16.802Z,101367.13
2023-02-27T19:35:45.212Z,101359.16
2023-02-27T19:38:13.571Z,101368.84
2023-02-27T19:40:42.251Z,101353.88
2023-02-27T19:43:15.550Z,101363.53
2023-02-27T19:45:46.434Z,101363.56
2023-02-27T19:48:20.432Z,101350.34
2023-02-27T19:50:49.636Z,101354.72
2023-02-27T19:53:20.200Z,101375.81
2023-02-27T19:56:04.664Z,101362.63
2023-02-27T19:58:37.278Z,101360.00
2023-02-27T20:01:06.378Z,101364.41
2023-02-27T20:03:39.641Z,101377.59
2023-02-27T20:06:17.535Z,101383.72
2023-02-27T20:08:49.055Z,101384.59
2023-02-27T20:11:20.109Z,101364.28
2023-02-27T20:13:51.335Z,101372.22
2023-02-27T20:16:28.080Z,101381.94
2023-02-27T20:18:59.773Z,101374.91
2023-02-27T20:21:29.304Z,101388.09
2023-02-27T20:24:01.355Z,101373.09
2023-02-27T20:26:32.205Z,101374.00
2023-02-27T20:29:11.216Z,101381.06
2023-02-27T20:31:41.823Z,101375.75
2023-02-27T20:34:12.713Z,101378.41
2023-02-27T20:36:45.855Z,101361.59
2023-02-27T20:39:18.594Z,101361.63
2023-02-27T20:41:50.456Z,101381.00
2023-02-27T20:44:18.362Z,101364.28
2023-02-27T20:46:49.461Z,101374.88
2023-02-27T20:49:18.171Z,101378.34
2023-02-27T20:51:46.949Z,101372.19
2023-02-27T20:54:20.969Z,101379.22
2023-02-27T20:56:54.495Z,101378.34
2023-02-27T20:59:43.478Z,101365.94
2023-02-27T21:02:12.747Z,101374.78
2023-02-27T21:04:43.399Z,101363.25
2023-02-27T21:07:16.908Z,101368.53
2023-02-27T21:09:45.987Z,101371.13
2023-02-27T21:12:14.228Z,101378.16
2023-02-27T21:14:44.512Z,101373.78
2023-02-27T21:17:13.844Z,101371.09
2023-02-27T21:19:43.366Z,101367.53
2023-02-27T21:22:11.529Z,101376.31
2023-02-27T21:24:40.078Z,101361.31
2023-02-27T21:27:10.943Z,101378.94
2023-02-27T21:29:39.433Z,101375.38
2023-02-27T21:32:07.800Z,101367.47
2023-02-27T21:34:36.650Z,101351.59
2023-02-27T21:37:07.472Z,101347.19
2023-02-27T21:39:35.440Z,101352.44
2023-02-27T21:42:03.891Z,101364.81
2023-02-27T21:44:32.351Z,101363.09
2023-02-27T21:47:10.303Z,101362.19
2023-02-27T21:49:40.647Z,101350.72
2023-02-27T21:52:09.227Z,101363.94
2023-02-27T21:54:38.742Z,101338.41
2023-02-27T21:57:06.910Z,101353.38
2023-02-27T21:59:35.024Z,101335.78
2023-02-27T22:02:03.549Z,101324.28
2023-02-27T22:04:32.512Z,101341.06
2023-02-27T22:07:01.204Z,101328.69
2023-02-27T22:09:34.307Z,101348.06
2023-02-27T22:12:03.743Z,101340.13
2023-02-27T22:14:32.414Z,101336.63
2023-02-27T22:17:00.565Z,101335.69
2023-02-27T22:19:29.410Z,101336.53
2023-02-27T22:21:57.826Z,101346.22
2023-02-27T22:24:25.909Z,101320.66
2023-02-27T22:26:53.979Z,101329.47
2023-02-27T22:29:24.820Z,101331.16
2023-02-27T22:31:54.524Z,101328.56
2023-02-27T22:34:23.964Z,101337.34
2023-02-27T22:36:53.807Z,101342.63
2023-02-27T22:39:22.324Z,101350.50
2023-02-27T22:41:53.443Z,101345.19
2023-02-27T22:44:22.681Z,101342.53
2023-02-27T22:46:50.936Z,101333.69
2023-02-27T22:49:23.871Z,101336.31
2023-02-27T22:51:52.477Z,101321.31
2023-02-27T22:54:22.689Z,101341.56
2023-02-27T22:56:52.835Z,101338.88
2023-02-27T22:59:21.524Z,101345.06
2023-02-27T23:01:50.579Z,101328.28
2023-02-27T23:04:19.037Z,101323.88
2023-02-27T23:06:47.185Z,101326.50
2023-02-27T23:09:22.880Z,101337.06
2023-02-27T23:11:51.574Z,101334.28
2023-02-27T23:14:21.781Z,101346.63
2023-02-27T23:16:51.690Z,101326.34
2023-02-27T23:19:21.828Z,101338.66
2023-02-27T23:21:50.986Z,101326.31
2023-02-27T23:24:20.494Z,101335.13
2023-02-27T23:26:53.170Z,101332.44
2023-02-27T23:29:22.821Z,101322.78
2023-02-27T23:31:51.817Z,101343.84
2023-02-27T23:34:20.125Z,101345.59
2023-02-27T23:36:48.627Z,101335.06
2023-02-27T23:39:16.880Z,101336.78
2023-02-27T23:41:45.096Z,101346.44
2023-02-27T23:44:14.492Z,101349.03
2023-02-27T23:46:42.841Z,101344.63
2023-02-27T23:49:12.016Z,101340.28
2023-02-27T23:51:40.591Z,101342.88
2023-02-27T23:54:09.509Z,101346.38
2023-02-27T23:56:38.570Z,101350.75
2023-02-27T23:59:07.780Z,101345.47
